Main page
METAR-TAF:

METAR-TAF

Airports :

Ronneby Airport

Ronneby, Sweden

latitude: 56-16N, longitude: 015-17E, elevation: 58 m

Current weather observation

The report was made 20 minutes ago, at 03:50 UTC
Wind 7 kt from the West
Temperature 14°C
Humidity 100%
Pressure 1017 hPa
Visibility 10 km or more

METAR: ESDF 180350Z AUTO 26007KT 9999 FEW022/// 14/14 Q1017

Time: 06:10 (04:10 UTC)

Forecast

The report was made 16 hours and 40 minutes ago, at 11:30 UTC
Forecast valid from 17 at 12 UTC to 17 at 14 UTC
Wind 13 kt from the South/Southwest
Visibility 10 km or more
Scattered clouds at a height of 3000 ft
Temporary
from 17 at 12 UTC to 17 at 14 UTC
Broken clouds at a height of 2000 ft, Cumulonimbus.
rain showers, thunderstorm,

TAF: ESDF 171130Z 1712/1714 20013KT 9999 SCT030 TEMPO 1712/1714 SHRA TS BKN020CB

Weather observations and forecasts of more than 4000 airports (METAR and TAF reports).

The available stations are represented by yellow and red dots on the map.

Hover mouse over dot to see the name of the station.

Then click to see weather observations and forecasts.

To change the map : click on the green buttons with a black cross to zoom in, on the green button with a dash to zoom out, or on the green arrows for adjacent maps.


METAR-TAF: